Time;durP1;ratioP1;P1;durP2;ratioP2;P2;SDS_P1;SDS_P2;PMS_P1;PMS_P2;Temp;Humidity;BMP_temperature;BMP_pressure;BME280_temperature;BME280_humidity;BME280_pressure;Samples;Min_cycle;Max_cycle;Signal;HPM_P1;HPM_P2
2024/03/08 00:00:34;;;;;;;14.63;9.77;;;11.80;97.20;;;;;;5051003;28;20029;-44
2024/03/08 00:03:03;;;;;;;11.73;9.70;;;11.70;97.20;;;;;;5051636;28;20029;-43
2024/03/08 00:05:28;;;;;;;13.70;10.30;;;11.80;97.20;;;;;;5052110;28;20028;-44
2024/03/08 00:07:54;;;;;;;11.15;9.27;;;11.70;97.20;;;;;;5052655;28;20479;-44
2024/03/08 00:10:20;;;;;;;13.00;9.80;;;11.70;97.20;;;;;;5052912;28;20028;-44
2024/03/08 00:12:46;;;;;;;12.57;9.57;;;11.70;97.20;;;;;;5051832;28;20040;-44
2024/03/08 00:15:17;;;;;;;12.27;9.25;;;11.70;97.30;;;;;;5052229;28;20025;-43
2024/03/08 00:17:44;;;;;;;12.55;9.85;;;11.70;97.30;;;;;;5052266;28;20416;-44
2024/03/08 00:20:10;;;;;;;15.18;9.90;;;11.70;97.30;;;;;;5051293;28;20166;-44
2024/03/08 00:22:36;;;;;;;12.77;9.73;;;11.70;97.30;;;;;;5052212;28;20025;-44
2024/03/08 00:25:03;;;;;;;12.70;9.60;;;11.70;97.30;;;;;;5050524;28;20487;-44
2024/03/08 00:27:30;;;;;;;12.77;8.88;;;11.60;97.30;;;;;;5050583;28;20037;-44
2024/03/08 00:29:56;;;;;;;12.38;9.25;;;11.70;97.40;;;;;;5051081;28;20017;-43
2024/03/08 00:32:24;;;;;;;13.98;9.90;;;11.60;97.40;;;;;;5054882;28;20025;-44
2024/03/08 00:34:51;;;;;;;12.73;9.38;;;11.60;97.40;;;;;;5055055;28;20476;-44
2024/03/08 00:37:17;;;;;;;13.82;9.98;;;11.60;97.40;;;;;;5054653;28;20024;-44
2024/03/08 00:39:43;;;;;;;12.35;9.18;;;11.60;97.40;;;;;;5054443;28;20513;-43
2024/03/08 00:42:09;;;;;;;12.43;8.55;;;11.60;97.80;;;;;;5055774;28;20025;-43
2024/03/08 00:44:34;;;;;;;12.60;9.23;;;11.60;97.40;;;;;;5056269;28;20391;-44
2024/03/08 00:47:00;;;;;;;12.27;9.00;;;11.60;97.40;;;;;;5055492;28;20537;-44
2024/03/08 00:49:25;;;;;;;13.20;9.63;;;11.50;97.40;;;;;;5055756;28;20025;-44
2024/03/08 00:51:51;;;;;;;13.40;9.27;;;11.60;97.40;;;;;;5056284;28;20076;-43
2024/03/08 00:54:18;;;;;;;13.05;9.57;;;11.50;97.40;;;;;;5055045;28;20118;-44
2024/03/08 00:56:45;;;;;;;13.63;9.98;;;11.50;97.40;;;;;;5055635;28;20498;-44
2024/03/08 00:59:11;;;;;;;11.88;9.27;;;11.50;97.40;;;;;;5055169;28;20091;-43
2024/03/08 01:01:37;;;;;;;13.65;10.00;;;11.50;97.40;;;;;;5055417;28;20017;-43
2024/03/08 01:04:02;;;;;;;12.82;9.57;;;11.50;97.40;;;;;;5055272;28;20320;-44
2024/03/08 01:06:28;;;;;;;12.73;9.80;;;11.50;97.40;;;;;;5055287;28;20474;-44
2024/03/08 01:08:54;;;;;;;11.55;8.57;;;11.50;97.40;;;;;;5055392;28;20100;-44
2024/03/08 01:11:19;;;;;;;11.93;9.32;;;11.50;97.40;;;;;;5055154;28;20505;-44
2024/03/08 01:13:47;;;;;;;11.20;8.73;;;11.50;97.40;;;;;;5055239;28;20032;-44
2024/03/08 01:16:12;;;;;;;11.27;8.68;;;11.50;97.40;;;;;;5054319;28;20025;-44
2024/03/08 01:18:38;;;;;;;12.43;9.18;;;11.50;97.40;;;;;;5053783;28;20051;-44
2024/03/08 01:21:04;;;;;;;12.10;9.20;;;11.40;97.30;;;;;;5054743;28;20029;-44
2024/03/08 01:23:30;;;;;;;11.57;8.73;;;11.40;97.30;;;;;;5054937;28;20503;-44
2024/03/08 01:25:58;;;;;;;11.82;9.00;;;11.40;97.40;;;;;;5054787;28;20044;-43
2024/03/08 01:28:24;;;;;;;11.88;8.68;;;11.40;97.30;;;;;;5054962;28;20048;-44
2024/03/08 01:30:55;;;;;;;10.82;8.23;;;11.40;97.30;;;;;;5054278;28;20441;-44
2024/03/08 01:33:25;;;;;;;11.13;8.45;;;11.40;97.30;;;;;;5053965;28;20108;-44
2024/03/08 01:35:51;;;;;;;10.85;8.50;;;11.40;97.30;;;;;;5053982;28;20056;-44
2024/03/08 01:38:18;;;;;;;11.25;8.18;;;11.40;97.30;;;;;;5053599;28;20059;-44
2024/03/08 01:40:44;;;;;;;11.48;8.75;;;11.40;97.30;;;;;;5053420;28;20082;-44
2024/03/08 01:43:21;;;;;;;11.52;8.77;;;11.40;97.30;;;;;;5053449;28;20025;-44
2024/03/08 01:45:47;;;;;;;9.68;8.23;;;11.40;97.30;;;;;;5053708;28;20441;-44
2024/03/08 01:48:14;;;;;;;12.82;8.60;;;11.30;97.30;;;;;;5053781;28;20083;-44
2024/03/08 01:50:40;;;;;;;11.23;8.85;;;11.30;97.30;;;;;;5053765;28;20021;-44
2024/03/08 01:53:07;;;;;;;12.38;9.18;;;11.30;97.30;;;;;;5054413;28;20039;-44
2024/03/08 01:55:35;;;;;;;12.02;8.95;;;11.30;97.30;;;;;;5054024;28;20028;-44
2024/03/08 01:58:03;;;;;;;12.70;8.90;;;11.30;97.30;;;;;;5054019;28;20032;-42
2024/03/08 02:00:29;;;;;;;10.93;8.68;;;11.30;97.30;;;;;;5054918;28;20033;-44
2024/03/08 02:02:57;;;;;;;11.18;8.50;;;11.30;97.30;;;;;;5053724;28;20113;-43
2024/03/08 02:05:23;;;;;;;11.25;8.60;;;11.30;97.30;;;;;;5053658;28;20021;-44
2024/03/08 02:07:49;;;;;;;11.93;8.93;;;11.30;97.30;;;;;;5054094;28;20021;-44
2024/03/08 02:10:15;;;;;;;11.63;8.50;;;11.30;97.30;;;;;;5054549;28;20437;-44
2024/03/08 02:12:41;;;;;;;10.73;8.65;;;11.20;97.20;;;;;;5054593;28;20033;-44
2024/03/08 02:15:07;;;;;;;12.38;9.18;;;11.30;97.30;;;;;;5054585;28;20044;-44
2024/03/08 02:17:33;;;;;;;12.57;9.00;;;11.20;97.20;;;;;;5054041;28;20070;-43
2024/03/08 02:20:04;;;;;;;11.68;8.52;;;11.30;97.20;;;;;;5053447;28;20029;-44
2024/03/08 02:22:31;;;;;;;12.57;8.57;;;11.20;97.20;;;;;;5053462;28;20029;-44
2024/03/08 02:24:58;;;;;;;12.50;8.57;;;11.20;97.20;;;;;;5053150;28;20102;-44
2024/03/08 02:27:27;;;;;;;12.43;8.85;;;11.20;97.20;;;;;;5054630;28;20024;-43
2024/03/08 02:29:55;;;;;;;11.40;8.82;;;11.20;97.20;;;;;;5054521;28;20056;-44
2024/03/08 02:32:22;;;;;;;11.23;8.70;;;11.20;97.20;;;;;;5053696;28;20075;-44
2024/03/08 02:34:48;;;;;;;11.40;8.90;;;11.20;97.20;;;;;;5054117;28;20029;-44
2024/03/08 02:37:13;;;;;;;9.63;7.78;;;11.20;97.20;;;;;;5052540;28;20406;-44
2024/03/08 02:39:39;;;;;;;10.60;8.20;;;11.20;97.20;;;;;;5052277;28;20036;-44
2024/03/08 02:42:05;;;;;;;10.70;8.50;;;11.20;97.20;;;;;;5053223;28;20033;-45
2024/03/08 02:44:30;;;;;;;11.15;8.38;;;11.20;97.20;;;;;;5052261;28;20103;-44
2024/03/08 02:46:56;;;;;;;11.73;8.88;;;11.20;97.20;;;;;;5052117;28;20029;-44
2024/03/08 02:49:22;;;;;;;14.35;8.88;;;11.20;97.20;;;;;;5053584;28;20494;-44
2024/03/08 02:51:47;;;;;;;11.50;8.32;;;11.10;97.20;;;;;;5053131;28;20029;-44
2024/03/08 02:54:13;;;;;;;11.73;8.77;;;11.20;97.20;;;;;;5053264;28;20505;-43
2024/03/08 02:56:39;;;;;;;11.23;8.77;;;11.10;97.20;;;;;;5053093;28;20029;-43
2024/03/08 02:59:05;;;;;;;11.35;8.38;;;11.10;97.20;;;;;;5053010;28;20028;-43
2024/03/08 03:01:31;;;;;;;11.60;8.48;;;11.10;97.20;;;;;;5053554;28;20029;-44
2024/03/08 03:03:58;;;;;;;11.07;9.13;;;11.10;97.20;;;;;;5053150;28;20028;-43
2024/03/08 03:06:23;;;;;;;11.38;8.63;;;11.10;97.20;;;;;;5051971;28;20025;-44
2024/03/08 03:08:51;;;;;;;10.85;8.48;;;11.10;97.20;;;;;;5052190;28;20524;-43
2024/03/08 03:11:17;;;;;;;11.05;8.70;;;11.10;97.10;;;;;;5052172;28;20017;-44
2024/03/08 03:13:47;;;;;;;10.65;8.50;;;11.10;97.10;;;;;;5051972;28;20187;-44
2024/03/08 03:16:20;;;;;;;9.95;7.95;;;11.10;97.10;;;;;;5051996;28;20029;-44
2024/03/08 03:18:46;;;;;;;12.57;9.05;;;11.10;97.10;;;;;;5050811;28;20025;-44
2024/03/08 03:21:13;;;;;;;11.52;8.40;;;11.10;97.10;;;;;;5051635;28;20029;-44
2024/03/08 03:23:39;;;;;;;11.25;8.15;;;11.10;97.10;;;;;;5052245;28;20032;-43
2024/03/08 03:26:10;;;;;;;11.43;8.82;;;11.00;97.10;;;;;;5052303;28;20540;-44
2024/03/08 03:28:39;;;;;;;11.25;9.02;;;11.10;97.10;;;;;;5052874;28;20517;-44
2024/03/08 03:31:09;;;;;;;11.25;8.43;;;11.10;97.10;;;;;;5052356;28;20045;-44
2024/03/08 03:33:36;;;;;;;13.18;8.70;;;11.00;97.10;;;;;;5053700;28;20024;-44
2024/03/08 03:36:02;;;;;;;10.65;8.00;;;11.00;97.40;;;;;;5052926;28;20025;-44
2024/03/08 03:38:28;;;;;;;12.27;8.07;;;11.00;97.10;;;;;;5052583;28;20483;-44
2024/03/08 03:40:57;;;;;;;11.10;8.52;;;11.00;97.00;;;;;;5052054;28;20029;-44
2024/03/08 03:43:25;;;;;;;9.93;8.30;;;11.00;97.00;;;;;;5051707;28;20053;-44
2024/03/08 03:45:51;;;;;;;11.60;8.63;;;11.00;97.00;;;;;;5051702;28;20013;-44
2024/03/08 03:48:17;;;;;;;12.02;8.13;;;11.00;97.00;;;;;;5051639;28;20505;-44
2024/03/08 03:50:42;;;;;;;13.07;8.85;;;11.00;97.00;;;;;;5051401;28;20554;-44
2024/03/08 03:53:08;;;;;;;11.50;8.65;;;11.00;97.00;;;;;;5052654;28;20017;-44
2024/03/08 03:55:35;;;;;;;9.98;8.35;;;11.00;97.00;;;;;;5051623;28;20024;-44
2024/03/08 03:58:01;;;;;;;12.40;8.57;;;11.00;97.00;;;;;;5051431;28;20029;-44
2024/03/08 04:00:27;;;;;;;11.25;8.52;;;11.00;97.00;;;;;;5051723;28;20067;-44
2024/03/08 04:02:53;;;;;;;11.30;8.68;;;11.00;97.00;;;;;;5052031;28;20562;-44
2024/03/08 04:05:18;;;;;;;11.07;8.70;;;11.00;97.00;;;;;;5052635;28;20033;-43
2024/03/08 04:07:44;;;;;;;11.98;8.77;;;11.00;97.00;;;;;;5051714;28;20025;-43
2024/03/08 04:10:11;;;;;;;11.10;8.80;;;11.00;97.00;;;;;;5052238;28;20029;-43
2024/03/08 04:12:37;;;;;;;11.85;8.95;;;11.00;97.00;;;;;;5051608;28;20020;-44
2024/03/08 04:15:07;;;;;;;11.98;8.48;;;10.90;97.00;;;;;;5051738;28;20306;-44
2024/03/08 04:17:36;;;;;;;10.43;8.30;;;10.90;96.90;;;;;;5050961;28;20382;-44
2024/03/08 04:20:07;;;;;;;11.65;8.25;;;10.90;96.90;;;;;;5052450;28;20021;-44
2024/03/08 04:22:35;;;;;;;10.70;8.35;;;10.90;96.90;;;;;;5051537;28;20021;-44
2024/03/08 04:25:02;;;;;;;10.85;8.27;;;10.90;96.90;;;;;;5053319;28;20018;-44
2024/03/08 04:27:27;;;;;;;12.00;8.80;;;10.90;96.90;;;;;;5052616;28;20069;-44
2024/03/08 04:29:53;;;;;;;10.73;8.48;;;10.90;96.90;;;;;;5050706;28;20053;-44
2024/03/08 04:32:18;;;;;;;10.65;8.82;;;10.90;96.90;;;;;;5050905;28;20064;-44
2024/03/08 04:34:44;;;;;;;12.10;8.45;;;10.90;96.90;;;;;;5051641;28;20025;-44
2024/03/08 04:37:13;;;;;;;12.00;8.45;;;10.90;96.90;;;;;;5050378;28;20037;-44
2024/03/08 04:39:39;;;;;;;12.68;8.68;;;10.90;96.90;;;;;;5050531;28;20021;-43
2024/03/08 04:42:09;;;;;;;11.88;8.80;;;10.90;96.90;;;;;;5050526;28;20062;-43
2024/03/08 04:44:39;;;;;;;11.45;8.40;;;10.90;96.90;;;;;;5052869;28;20032;-44
2024/03/08 04:47:07;;;;;;;12.55;8.82;;;10.90;96.90;;;;;;5050804;28;20020;-44
2024/03/08 04:49:36;;;;;;;11.20;8.82;;;10.90;96.90;;;;;;5052225;28;20056;-44
2024/03/08 04:52:06;;;;;;;13.20;9.00;;;10.80;96.80;;;;;;5051527;28;20090;-44
2024/03/08 04:54:32;;;;;;;11.05;8.77;;;10.80;96.80;;;;;;5050551;28;20055;-44
2024/03/08 04:57:00;;;;;;;11.10;8.35;;;10.80;96.80;;;;;;5050591;28;20029;-43
2024/03/08 04:59:27;;;;;;;11.73;8.68;;;10.80;96.80;;;;;;5050406;28;20471;-44
2024/03/08 05:01:52;;;;;;;13.13;8.93;;;10.80;96.80;;;;;;5050419;28;20472;-44
2024/03/08 05:04:18;;;;;;;12.43;9.45;;;10.80;96.80;;;;;;5050365;28;20041;-44
2024/03/08 05:06:44;;;;;;;11.93;9.13;;;10.80;96.80;;;;;;5050708;28;20025;-44
2024/03/08 05:09:16;;;;;;;12.35;9.25;;;10.80;96.80;;;;;;5050482;28;20490;-44
2024/03/08 05:11:46;;;;;;;11.55;8.50;;;10.80;96.80;;;;;;5050994;28;20060;-44
2024/03/08 05:14:16;;;;;;;12.60;8.32;;;10.80;96.70;;;;;;5051471;28;20060;-43
2024/03/08 05:16:43;;;;;;;12.45;9.52;;;10.80;96.70;;;;;;5052869;28;20074;-44
2024/03/08 05:19:08;;;;;;;11.52;8.38;;;10.80;96.70;;;;;;5054750;28;20035;-44
2024/03/08 05:21:34;;;;;;;10.80;8.18;;;10.80;96.70;;;;;;5055868;28;20530;-44
2024/03/08 05:24:00;;;;;;;11.93;9.05;;;10.80;96.70;;;;;;5054890;28;20116;-44
2024/03/08 05:26:26;;;;;;;11.55;8.77;;;10.80;96.70;;;;;;5054599;28;20055;-43
2024/03/08 05:28:51;;;;;;;11.38;8.75;;;10.80;96.70;;;;;;5054104;28;20056;-44
2024/03/08 05:31:23;;;;;;;11.48;8.73;;;10.70;96.70;;;;;;5054679;28;20549;-44
2024/03/08 05:33:49;;;;;;;10.73;7.90;;;10.80;96.70;;;;;;5055415;28;20029;-44
2024/03/08 05:36:16;;;;;;;11.27;8.57;;;10.70;96.70;;;;;;5055240;28;20052;-44
2024/03/08 05:38:45;;;;;;;11.32;8.32;;;10.70;96.70;;;;;;5054279;28;20020;-45
2024/03/08 05:41:14;;;;;;;12.00;8.75;;;10.70;96.70;;;;;;5053747;28;20100;-45
2024/03/08 05:43:41;;;;;;;12.30;9.13;;;10.80;96.70;;;;;;5053538;28;20112;-45
2024/03/08 05:46:07;;;;;;;11.52;8.77;;;10.70;97.10;;;;;;5053361;28;20078;-45
2024/03/08 05:48:32;;;;;;;11.98;8.55;;;10.80;96.80;;;;;;5055571;28;20033;-45
2024/03/08 05:50:59;;;;;;;12.65;8.98;;;10.70;96.80;;;;;;5053486;28;20013;-44
2024/03/08 05:53:26;;;;;;;11.38;9.25;;;10.70;96.80;;;;;;5053314;28;20063;-45
2024/03/08 05:55:53;;;;;;;11.25;9.40;;;10.70;96.80;;;;;;5054555;28;20024;-45
2024/03/08 05:58:19;;;;;;;13.68;9.63;;;10.70;96.80;;;;;;5054851;28;20483;-45
2024/03/08 06:00:46;;;;;;;13.55;9.98;;;10.70;96.80;;;;;;5053503;28;20036;-45
2024/03/08 06:03:11;;;;;;;14.23;10.40;;;10.80;96.90;;;;;;5054293;28;20040;-45
2024/03/08 06:05:37;;;;;;;14.10;9.82;;;10.80;96.80;;;;;;5054059;28;20475;-45
2024/03/08 06:08:04;;;;;;;12.43;9.48;;;10.80;96.80;;;;;;5053326;28;20040;-45
2024/03/08 06:10:30;;;;;;;14.25;10.60;;;10.80;96.80;;;;;;5054135;28;20440;-44
2024/03/08 06:12:55;;;;;;;14.70;9.98;;;10.80;96.80;;;;;;5054536;28;20110;-43
2024/03/08 06:15:21;;;;;;;12.63;9.88;;;10.80;96.80;;;;;;5054870;28;20031;-44
2024/03/08 06:17:47;;;;;;;12.43;9.50;;;10.90;96.80;;;;;;5054392;28;20031;-44
2024/03/08 06:20:13;;;;;;;13.63;9.45;;;10.90;96.80;;;;;;5053978;28;20037;-44
2024/03/08 06:22:41;;;;;;;14.48;9.63;;;10.90;96.80;;;;;;5052577;28;20036;-44
2024/03/08 06:25:16;;;;;;;13.48;9.50;;;10.90;96.80;;;;;;5052808;28;20079;-44
2024/03/08 06:27:43;;;;;;;12.27;9.27;;;11.00;96.80;;;;;;5052826;28;20025;-44
2024/03/08 06:30:09;;;;;;;11.50;9.13;;;11.00;96.70;;;;;;5053165;28;20391;-43
2024/03/08 06:32:37;;;;;;;12.85;8.90;;;11.10;96.70;;;;;;5053208;28;20056;-44
2024/03/08 06:35:10;;;;;;;12.25;8.90;;;11.10;96.60;;;;;;5052386;28;20033;-45
2024/03/08 06:37:35;;;;;;;12.65;9.20;;;11.20;96.50;;;;;;5053601;28;20025;-44
2024/03/08 06:40:03;;;;;;;12.80;9.23;;;11.20;96.50;;;;;;5052706;28;20025;-47
2024/03/08 06:42:29;;;;;;;12.18;9.02;;;11.30;96.50;;;;;;5053226;28;20029;-43
2024/03/08 06:44:59;;;;;;;14.75;9.30;;;11.30;96.40;;;;;;5051935;28;20031;-44
2024/03/08 06:47:25;;;;;;;11.30;8.85;;;11.40;96.30;;;;;;5053053;28;20029;-44
2024/03/08 06:49:51;;;;;;;14.27;9.00;;;11.50;96.30;;;;;;5052261;28;20021;-45
2024/03/08 06:52:17;;;;;;;12.57;8.57;;;11.50;96.20;;;;;;5052782;28;20376;-44
2024/03/08 06:54:43;;;;;;;11.10;8.52;;;11.60;96.20;;;;;;5052479;28;20036;-45
2024/03/08 06:57:10;;;;;;;11.82;8.73;;;11.60;96.10;;;;;;5052036;28;20039;-45
2024/03/08 06:59:36;;;;;;;11.18;8.82;;;11.70;96.00;;;;;;5051750;28;20419;-44
2024/03/08 07:02:02;;;;;;;11.38;8.60;;;11.70;95.90;;;;;;5051911;28;20067;-44
2024/03/08 07:04:29;;;;;;;11.23;8.95;;;11.80;95.80;;;;;;5051877;28;20078;-45
2024/03/08 07:06:57;;;;;;;11.95;8.35;;;11.80;95.80;;;;;;5051872;28;20021;-43
2024/03/08 07:09:23;;;;;;;11.18;8.30;;;11.90;95.70;;;;;;5051603;28;20052;-45
2024/03/08 07:11:54;;;;;;;10.85;7.90;;;11.90;95.60;;;;;;5053113;28;20017;-44
2024/03/08 07:14:23;;;;;;;11.52;8.10;;;12.00;95.60;;;;;;5053062;28;20108;-44
2024/03/08 07:16:50;;;;;;;10.82;8.68;;;12.00;95.50;;;;;;5051880;28;20549;-43
2024/03/08 07:19:16;;;;;;;10.00;7.95;;;12.00;95.50;;;;;;5051661;28;20021;-44
2024/03/08 07:21:43;;;;;;;10.82;7.85;;;12.10;95.40;;;;;;5052276;28;20033;-44
2024/03/08 07:26:44;;;;;;;9.90;7.72;;;12.20;95.30;;;;;;5051410;28;20403;-45
2024/03/08 07:29:09;;;;;;;12.52;8.15;;;12.20;95.30;;;;;;5051228;28;20491;-45
2024/03/08 07:31:50;;;;;;;10.63;8.15;;;12.30;95.20;;;;;;5051421;28;20032;-44
2024/03/08 07:34:16;;;;;;;10.27;7.75;;;12.30;95.10;;;;;;5051501;28;20028;-44
2024/03/08 07:36:42;;;;;;;10.45;7.35;;;12.40;95.10;;;;;;5051323;28;20083;-45
2024/03/08 07:39:14;;;;;;;10.60;7.55;;;12.40;95.00;;;;;;5050831;28;20449;-44
2024/03/08 07:41:40;;;;;;;11.02;7.80;;;12.50;95.00;;;;;;5051910;28;20062;-44
2024/03/08 07:44:06;;;;;;;10.35;7.78;;;12.50;94.90;;;;;;5051699;28;20110;-45
2024/03/08 07:46:34;;;;;;;9.23;7.35;;;12.60;94.80;;;;;;5051188;28;20555;-44
2024/03/08 07:48:59;;;;;;;11.27;7.82;;;12.70;94.80;;;;;;5051571;28;20017;-44
2024/03/08 07:51:25;;;;;;;9.63;7.45;;;12.70;94.70;;;;;;5051213;28;20039;-44
2024/03/08 07:53:51;;;;;;;8.68;6.65;;;12.70;94.70;;;;;;5051508;28;20029;-45
2024/03/08 07:56:18;;;;;;;9.63;7.40;;;12.80;94.60;;;;;;5050943;28;20032;-45
2024/03/08 07:58:44;;;;;;;11.02;7.70;;;12.80;94.50;;;;;;5051237;28;20491;-45
2024/03/08 08:01:19;;;;;;;10.77;7.90;;;12.90;94.50;;;;;;5050820;28;20033;-45
2024/03/08 08:03:45;;;;;;;9.45;7.35;;;12.90;94.40;;;;;;5051447;28;20510;-45
2024/03/08 08:06:15;;;;;;;10.63;7.60;;;12.90;94.30;;;;;;5050845;28;20033;-43
2024/03/08 08:08:44;;;;;;;10.55;7.88;;;13.00;94.20;;;;;;5051354;28;20028;-45
2024/03/08 08:11:11;;;;;;;11.30;7.68;;;13.10;94.20;;;;;;5051370;28;20044;-45
2024/03/08 08:13:37;;;;;;;9.82;7.28;;;13.10;94.10;;;;;;5052193;28;20079;-44
2024/03/08 08:16:06;;;;;;;10.50;7.30;;;13.20;94.00;;;;;;5052110;28;20021;-43
2024/03/08 08:18:33;;;;;;;14.70;10.60;;;13.20;93.90;;;;;;5050532;28;20048;-44
2024/03/08 08:21:00;;;;;;;14.68;10.73;;;13.20;93.20;;;;;;5050970;28;20022;-44
2024/03/08 08:23:25;;;;;;;15.45;10.82;;;13.20;92.50;;;;;;5051498;28;20494;-44
2024/03/08 08:25:51;;;;;;;13.43;10.00;;;13.30;92.30;;;;;;5052191;28;20025;-45
2024/03/08 08:28:18;;;;;;;15.80;10.43;;;13.30;92.20;;;;;;5052262;28;20037;-43
2024/03/08 08:30:44;;;;;;;13.63;10.50;;;13.40;92.20;;;;;;5051255;28;20044;-42
2024/03/08 08:33:10;;;;;;;16.25;10.52;;;13.40;92.20;;;;;;5051077;28;20048;-45
2024/03/08 08:35:39;;;;;;;11.88;9.88;;;13.40;92.20;;;;;;5050875;28;20483;-44
2024/03/08 08:38:05;;;;;;;12.02;10.00;;;13.50;92.20;;;;;;5050902;28;20098;-43
2024/03/08 08:40:31;;;;;;;14.45;10.30;;;13.50;92.20;;;;;;5052155;28;20025;-42
2024/03/08 08:42:58;;;;;;;12.50;9.82;;;13.60;92.20;;;;;;5051120;28;20364;-44
2024/03/08 08:45:23;;;;;;;14.32;9.82;;;13.60;92.20;;;;;;5050854;28;20025;-42
2024/03/08 08:47:49;;;;;;;12.98;9.35;;;13.60;92.10;;;;;;5051012;28;20501;-42
2024/03/08 08:50:16;;;;;;;13.65;9.70;;;13.70;92.10;;;;;;5051498;28;20032;-44
2024/03/08 08:52:43;;;;;;;13.35;9.32;;;13.80;92.10;;;;;;5053509;28;20090;-44
2024/03/08 08:55:14;;;;;;;12.73;9.27;;;13.80;92.10;;;;;;5054859;28;20491;-44
2024/03/08 08:57:40;;;;;;;11.95;9.25;;;13.80;92.00;;;;;;5055958;28;20041;-44
2024/03/08 09:00:14;;;;;;;13.32;9.70;;;13.90;92.00;;;;;;5054759;28;20031;-40
2024/03/08 09:02:40;;;;;;;;;;;13.90;91.90;;;;;;5054777;28;20028;-44
2024/03/08 09:05:07;;;;;;;14.65;9.77;;;14.00;91.90;;;;;;5055165;28;19905;-44
2024/03/08 09:07:33;;;;;;;10.90;9.00;;;14.00;91.90;;;;;;5055559;28;20442;-44
2024/03/08 09:10:00;;;;;;;13.32;9.35;;;14.00;91.80;;;;;;5054597;28;20013;-44
2024/03/08 09:12:26;;;;;;;12.77;8.18;;;14.10;91.80;;;;;;5054966;28;20025;-44
2024/03/08 09:14:51;;;;;;;11.68;8.68;;;14.10;91.70;;;;;;5055000;28;20064;-44
2024/03/08 09:17:20;;;;;;;12.48;9.05;;;14.20;92.00;;;;;;5055378;28;20061;-40
2024/03/08 09:19:49;;;;;;;12.90;8.80;;;14.20;91.60;;;;;;5055077;28;20029;-44
2024/03/08 09:22:15;;;;;;;12.35;9.00;;;14.20;91.60;;;;;;5054540;28;20114;-45
2024/03/08 09:24:43;;;;;;;12.18;8.60;;;14.30;91.60;;;;;;5053859;28;20067;-41
2024/03/08 09:27:09;;;;;;;9.82;7.60;;;14.30;91.50;;;;;;5053874;28;20416;-45
2024/03/08 09:29:38;;;;;;;13.48;8.50;;;14.30;91.40;;;;;;5053538;28;20043;-43
2024/03/08 09:32:04;;;;;;;11.55;7.93;;;14.40;91.40;;;;;;5053950;28;20143;-43
2024/03/08 09:34:30;;;;;;;12.65;8.50;;;14.40;91.40;;;;;;5054097;28;20017;-44
2024/03/08 09:36:56;;;;;;;11.98;8.65;;;14.50;91.40;;;;;;5054161;28;20143;-44
2024/03/08 09:39:22;;;;;;;11.73;7.93;;;14.50;91.30;;;;;;5053911;28;20028;-45
2024/03/08 09:41:50;;;;;;;13.45;9.52;;;14.50;91.20;;;;;;5053400;28;20021;-43
2024/03/08 09:44:16;;;;;;;13.10;10.23;;;14.50;90.60;;;;;;5052847;28;20075;-43
2024/03/08 09:46:42;;;;;;;13.45;10.10;;;14.50;89.50;;;;;;5053447;28;20029;-42
2024/03/08 09:49:08;;;;;;;12.23;9.07;;;14.50;88.60;;;;;;5054096;28;20538;-41
2024/03/08 09:51:39;;;;;;;12.00;9.35;;;14.50;88.30;;;;;;5054438;28;20041;-45
2024/03/08 09:54:05;;;;;;;12.23;8.60;;;14.50;88.30;;;;;;5054273;28;20066;-44
2024/03/08 09:56:35;;;;;;;10.55;8.50;;;14.50;89.20;;;;;;5054756;28;20072;-41
2024/03/08 09:59:42;;;;;;;14.25;8.98;;;14.50;88.60;;;;;;5053558;28;20048;-45
2024/03/08 10:02:05;;;;;;;10.98;8.07;;;14.50;88.70;;;;;;5052913;28;20033;-45
2024/03/08 10:04:31;;;;;;;11.82;8.70;;;14.60;89.00;;;;;;5053159;28;20434;-44
2024/03/08 10:07:01;;;;;;;11.32;9.00;;;14.60;89.10;;;;;;5053018;28;20558;-45
2024/03/08 10:09:27;;;;;;;14.15;9.32;;;14.70;89.30;;;;;;5053704;28;20072;-45
2024/03/08 10:11:58;;;;;;;12.20;9.38;;;14.60;88.70;;;;;;5053212;28;20104;-44
2024/03/08 10:14:27;;;;;;;12.65;9.13;;;14.70;87.30;;;;;;5053246;28;20507;-43
2024/03/08 10:16:53;;;;;;;12.80;9.40;;;14.60;87.20;;;;;;5053043;28;20067;-44
2024/03/08 10:19:20;;;;;;;10.90;8.32;;;14.60;87.10;;;;;;5053070;28;20024;-45
2024/03/08 10:21:53;;;;;;;12.68;9.00;;;14.70;86.50;;;;;;5054397;28;20039;-45
2024/03/08 10:24:19;;;;;;;12.57;8.27;;;14.70;86.80;;;;;;5051720;28;20120;-44
2024/03/08 10:26:45;;;;;;;11.77;9.27;;;14.70;87.00;;;;;;5053442;28;20066;-45
2024/03/08 10:29:15;;;;;;;9.70;8.20;;;14.70;87.20;;;;;;5052339;28;20376;-45
2024/03/08 10:31:44;;;;;;;9.20;7.13;;;14.70;87.30;;;;;;5052743;28;20100;-45
2024/03/08 10:34:10;;;;;;;9.77;7.85;;;14.80;87.50;;;;;;5052741;28;20025;-45
2024/03/08 10:36:37;;;;;;;11.55;8.20;;;14.80;87.60;;;;;;5052502;28;20032;-45
2024/03/08 10:39:17;;;;;;;10.40;7.90;;;14.90;87.80;;;;;;5052331;28;20081;-45
2024/03/08 10:41:46;;;;;;;9.70;7.53;;;14.90;87.90;;;;;;5052531;28;20024;-45
2024/03/08 10:44:30;;;;;;;10.55;7.40;;;14.90;88.00;;;;;;5052509;28;20051;-45
2024/03/08 10:47:05;;;;;;;11.02;7.35;;;15.00;88.10;;;;;;5052180;28;20024;-45
2024/03/08 10:49:47;;;;;;;11.52;7.40;;;15.00;88.10;;;;;;5052061;28;20031;-45
2024/03/08 10:52:15;;;;;;;8.30;6.88;;;15.00;88.10;;;;;;5052434;28;20078;-44
2024/03/08 10:54:43;;;;;;;8.80;6.90;;;15.00;88.20;;;;;;5052084;28;20036;-43
2024/03/08 10:57:10;;;;;;;8.68;6.90;;;15.00;88.20;;;;;;5052677;28;20100;-43
2024/03/08 10:59:36;;;;;;;8.23;6.38;;;15.10;88.20;;;;;;5052667;28;20025;-43
2024/03/08 11:02:02;;;;;;;9.27;7.18;;;15.10;88.20;;;;;;5053115;28;20383;-44
2024/03/08 11:04:29;;;;;;;12.05;8.05;;;15.10;88.20;;;;;;5052726;28;20036;-44
2024/03/08 11:07:05;;;;;;;14.93;7.90;;;15.10;88.10;;;;;;5051767;28;20031;-43
2024/03/08 11:09:32;;;;;;;10.57;8.18;;;15.10;86.80;;;;;;5051832;28;20108;-44
2024/03/08 11:12:16;;;;;;;11.73;8.18;;;15.10;86.40;;;;;;5053485;28;20142;-43
2024/03/08 11:14:44;;;;;;;9.70;7.07;;;15.20;86.30;;;;;;5051987;28;20029;-44
2024/03/08 11:17:09;;;;;;;8.77;7.40;;;15.20;86.30;;;;;;5051748;28;20028;-44
2024/03/08 11:19:35;;;;;;;10.38;7.90;;;15.20;86.40;;;;;;5052346;28;20502;-44
2024/03/08 11:22:04;;;;;;;9.68;7.10;;;15.20;86.50;;;;;;5052612;28;20325;-44
2024/03/08 11:24:40;;;;;;;9.88;7.03;;;15.20;86.60;;;;;;5051599;28;20035;-44
2024/03/08 11:27:07;;;;;;;9.52;7.07;;;15.20;86.70;;;;;;5053513;28;20029;-42
2024/03/08 11:29:39;;;;;;;10.23;7.10;;;15.30;86.80;;;;;;5052739;28;20033;-44
2024/03/08 11:32:11;;;;;;;10.35;6.50;;;15.30;87.00;;;;;;5052310;28;20028;-44
2024/03/08 11:34:40;;;;;;;9.10;7.28;;;15.30;86.90;;;;;;5052006;28;20014;-43
2024/03/08 11:37:14;;;;;;;9.43;6.50;;;15.30;87.00;;;;;;5051218;28;20476;-44
2024/03/08 11:39:46;;;;;;;10.30;7.18;;;15.40;87.10;;;;;;5053166;28;20455;-41
2024/03/08 11:42:12;;;;;;;11.40;7.28;;;15.40;87.10;;;;;;5051641;28;20021;-44
2024/03/08 11:44:37;;;;;;;10.30;6.75;;;15.40;87.10;;;;;;5050306;28;20071;-43
2024/03/08 11:47:10;;;;;;;7.72;6.35;;;15.50;87.20;;;;;;5051089;28;20036;-40
2024/03/08 11:49:36;;;;;;;8.60;6.38;;;15.50;87.10;;;;;;5051831;28;20048;-44
2024/03/08 11:52:02;;;;;;;10.38;7.00;;;15.50;87.10;;;;;;5052247;28;20060;-44
2024/03/08 11:54:29;;;;;;;8.35;6.28;;;15.60;87.10;;;;;;5053095;28;20021;-43
2024/03/08 11:57:00;;;;;;;7.47;6.03;;;15.60;87.10;;;;;;5052088;28;20376;-41
2024/03/08 11:59:30;;;;;;;9.35;6.72;;;15.60;87.10;;;;;;5051075;28;20087;-44
2024/03/08 12:02:01;;;;;;;8.73;6.38;;;15.70;87.10;;;;;;5051575;28;20032;-43
2024/03/08 12:04:27;;;;;;;8.90;6.60;;;15.70;87.00;;;;;;5051154;28;20035;-44
2024/03/08 12:06:53;;;;;;;7.55;6.22;;;15.70;86.90;;;;;;5050800;28;20375;-43
2024/03/08 12:09:19;;;;;;;7.55;5.97;;;15.80;86.90;;;;;;5051096;28;20025;-44
2024/03/08 12:11:48;;;;;;;6.50;5.47;;;15.80;86.90;;;;;;5051188;28;20028;-41
2024/03/08 12:14:14;;;;;;;6.82;5.55;;;15.80;86.80;;;;;;5051423;28;20028;-43
2024/03/08 12:16:42;;;;;;;6.88;5.43;;;15.90;87.50;;;;;;5050991;28;20089;-45
2024/03/08 12:19:09;;;;;;;7.60;5.65;;;15.90;86.70;;;;;;5052147;28;20021;-45
2024/03/08 12:21:36;;;;;;;6.80;5.68;;;15.90;86.70;;;;;;5052885;28;20513;-42
2024/03/08 12:24:04;;;;;;;7.50;5.53;;;16.00;86.80;;;;;;5051769;28;20546;-44
2024/03/08 12:26:32;;;;;;;7.85;5.55;;;16.00;86.70;;;;;;5054569;28;20029;-45
2024/03/08 12:29:34;;;;;;;6.40;5.32;;;16.10;86.70;;;;;;5055924;28;20029;-45
2024/03/08 12:32:05;;;;;;;6.40;4.97;;;16.10;86.70;;;;;;5056290;28;20033;-43
2024/03/08 12:34:31;;;;;;;6.03;5.13;;;16.20;86.70;;;;;;5056116;28;20094;-45
2024/03/08 12:36:58;;;;;;;6.85;5.10;;;16.30;86.70;;;;;;5055651;28;20033;-44
2024/03/08 12:39:26;;;;;;;6.75;4.75;;;16.30;86.60;;;;;;5054579;28;20028;-43
2024/03/08 12:41:53;;;;;;;6.93;5.88;;;16.30;86.50;;;;;;5054990;28;20025;-43